createdAt,value
2019-02-05T00:02:07.824Z,13.23
2019-02-05T00:07:52.637Z,8.10
2019-02-05T00:13:36.839Z,9.43
2019-02-05T00:16:05.106Z,8.63
2019-02-05T00:18:33.474Z,8.33
2019-02-05T00:21:01.717Z,8.77
2019-02-05T00:23:30.329Z,10.00
2019-02-05T00:26:05.936Z,11.77
2019-02-05T00:28:28.614Z,11.70
2019-02-05T00:30:56.783Z,12.90
2019-02-05T00:33:25.045Z,12.20
2019-02-05T00:35:53.266Z,7.40
2019-02-05T00:38:21.799Z,9.33
2019-02-05T00:40:50.119Z,8.00
2019-02-05T00:43:18.398Z,8.20
2019-02-05T00:45:46.858Z,11.07
2019-02-05T00:48:15.029Z,12.07
2019-02-05T00:53:48.097Z,8.67
2019-02-05T00:56:17.872Z,8.43
2019-02-05T00:58:46.435Z,8.73
2019-02-05T01:04:29.637Z,9.33
2019-02-05T01:06:58.066Z,13.37
2019-02-05T01:09:26.702Z,8.70
2019-02-05T01:11:54.946Z,8.57
2019-02-05T01:14:23.181Z,9.07
2019-02-05T01:16:51.370Z,9.97
2019-02-05T01:19:19.498Z,11.07
2019-02-05T01:21:47.778Z,12.70
2019-02-05T01:24:16.138Z,8.10
2019-02-05T01:26:44.387Z,10.83
2019-02-05T01:29:12.746Z,11.80
2019-02-05T01:31:41.059Z,11.47
2019-02-05T01:34:09.415Z,9.33
2019-02-05T01:36:37.719Z,8.37
2019-02-05T01:41:38.886Z,10.07
2019-02-05T01:44:08.287Z,10.37
2019-02-05T01:46:36.458Z,11.00
2019-02-05T01:49:04.707Z,8.30
2019-02-05T01:51:32.992Z,10.53
2019-02-05T01:54:01.138Z,12.10
2019-02-05T01:56:40.193Z,13.40
2019-02-05T01:58:59.648Z,12.80
2019-02-05T02:01:27.820Z,12.33
2019-02-05T02:03:56.112Z,11.23
2019-02-05T02:06:24.327Z,14.53
2019-02-05T02:08:52.473Z,11.10
2019-02-05T02:11:20.659Z,10.67
2019-02-05T02:13:49.036Z,12.33
2019-02-05T02:16:17.691Z,10.00
2019-02-05T02:18:46.811Z,13.23
2019-02-05T02:21:15.387Z,12.37
2019-02-05T02:23:43.774Z,11.43
2019-02-05T02:26:12.019Z,18.73
2019-02-05T02:28:40.547Z,10.93
2019-02-05T02:31:08.795Z,12.27
2019-02-05T02:33:37.026Z,11.83
2019-02-05T02:36:05.177Z,19.23
2019-02-05T02:38:33.426Z,16.13
2019-02-05T02:41:01.692Z,15.70
2019-02-05T02:43:29.898Z,12.23
2019-02-05T02:45:58.349Z,12.33
2019-02-05T02:48:26.586Z,13.77
2019-02-05T02:50:55.067Z,13.13
2019-02-05T02:53:23.286Z,19.20
2019-02-05T02:55:51.516Z,17.20
2019-02-05T02:58:19.627Z,25.23
2019-02-05T03:00:48.366Z,26.37
2019-02-05T03:03:16.619Z,18.87
2019-02-05T03:05:44.883Z,21.23
2019-02-05T03:08:13.026Z,21.43
2019-02-05T03:10:41.318Z,19.57
2019-02-05T03:13:09.614Z,31.37
2019-02-05T03:15:37.928Z,21.20
2019-02-05T03:18:06.506Z,16.73
2019-02-05T03:20:35.266Z,21.93
2019-02-05T03:23:03.498Z,13.37
2019-02-05T03:25:31.787Z,17.93
2019-02-05T03:28:00.091Z,12.43
2019-02-05T03:30:29.307Z,14.43
2019-02-05T03:32:57.709Z,14.77
2019-02-05T03:35:25.975Z,14.10
2019-02-05T03:37:54.361Z,15.23
2019-02-05T03:40:24.354Z,17.87
2019-02-05T03:42:52.725Z,9.50
2019-02-05T03:45:21.924Z,18.70
2019-02-05T03:47:50.836Z,18.63
2019-02-05T03:50:19.095Z,11.17
2019-02-05T03:52:48.999Z,10.80
2019-02-05T03:55:19.126Z,16.43
2019-02-05T03:57:49.037Z,13.03
2019-02-05T04:00:18.952Z,16.53
2019-02-05T04:02:48.878Z,12.17
2019-02-05T04:05:18.817Z,9.00
2019-02-05T04:07:48.714Z,10.00
2019-02-05T04:10:18.928Z,7.63
2019-02-05T04:12:49.006Z,16.77
2019-02-05T04:15:18.867Z,10.00
2019-02-05T04:17:48.773Z,14.10
2019-02-05T04:20:18.818Z,9.20
2019-02-05T04:22:46.762Z,16.77
2019-02-05T04:25:17.098Z,16.67
2019-02-05T04:27:47.586Z,12.73
2019-02-05T04:30:17.776Z,13.97
2019-02-05T04:32:47.861Z,11.17
2019-02-05T04:35:17.838Z,10.50
2019-02-05T04:37:47.714Z,10.33
2019-02-05T04:40:17.637Z,9.70
2019-02-05T04:42:47.438Z,9.60
2019-02-05T04:45:17.309Z,11.33
2019-02-05T04:47:47.145Z,8.87
2019-02-05T04:50:17.057Z,11.27
2019-02-05T04:52:46.841Z,8.80
2019-02-05T04:55:14.778Z,10.73
2019-02-05T04:57:56.646Z,9.93
2019-02-05T05:00:16.923Z,8.90
2019-02-05T05:02:46.954Z,9.03
2019-02-05T05:05:14.778Z,7.63
2019-02-05T05:07:44.598Z,6.30
2019-02-05T05:10:12.914Z,9.20
2019-02-05T05:12:41.094Z,9.03
2019-02-05T05:15:09.698Z,8.20
2019-02-05T05:17:37.961Z,8.13
2019-02-05T05:20:07.918Z,10.00
2019-02-05T05:22:36.348Z,7.63
2019-02-05T05:25:06.746Z,7.43
2019-02-05T05:27:35.041Z,8.10
2019-02-05T05:30:04.799Z,7.10
2019-02-05T05:32:33.028Z,10.07
2019-02-05T05:35:01.361Z,7.80
2019-02-05T05:37:29.498Z,9.80
2019-02-05T05:39:57.627Z,8.77
2019-02-05T05:42:26.253Z,8.10
2019-02-05T05:44:54.402Z,6.07
2019-02-05T05:47:22.547Z,8.73
2019-02-05T05:49:50.732Z,7.77
2019-02-05T05:52:18.935Z,7.93
2019-02-05T05:54:47.114Z,7.47
2019-02-05T05:57:18.639Z,9.40
2019-02-05T05:59:45.303Z,8.33
2019-02-05T06:02:13.685Z,6.97
2019-02-05T06:04:41.826Z,9.57
2019-02-05T06:07:10.055Z,5.77
2019-02-05T06:09:38.345Z,7.90
2019-02-05T06:12:06.631Z,7.10
2019-02-05T06:14:34.891Z,5.10
2019-02-05T06:17:03.552Z,7.80
2019-02-05T06:19:31.887Z,4.37
2019-02-05T06:22:00.426Z,7.23
2019-02-05T06:24:28.726Z,6.43
2019-02-05T06:26:57.066Z,6.93
2019-02-05T06:29:25.343Z,8.43
2019-02-05T06:31:53.631Z,7.27
2019-02-05T06:34:22.208Z,6.60
2019-02-05T06:36:50.384Z,7.57
2019-02-05T06:39:18.598Z,8.37
2019-02-05T06:41:46.826Z,7.57
2019-02-05T06:44:15.015Z,6.83
2019-02-05T06:46:43.226Z,9.50
2019-02-05T06:49:11.495Z,8.30
2019-02-05T06:51:39.836Z,8.77
2019-02-05T06:54:08.219Z,6.23
2019-02-05T06:56:36.318Z,7.07
2019-02-05T06:59:04.588Z,7.27
2019-02-05T07:01:33.043Z,6.83
2019-02-05T07:04:01.327Z,7.67
2019-02-05T07:06:29.439Z,5.13
2019-02-05T07:08:57.600Z,5.27
2019-02-05T07:11:27.121Z,6.33
2019-02-05T07:13:58.094Z,3.93
2019-02-05T07:16:25.138Z,8.37
2019-02-05T07:18:53.373Z,7.13
2019-02-05T07:21:21.626Z,8.83
2019-02-05T07:23:49.826Z,8.30
2019-02-05T07:26:17.961Z,8.40
2019-02-05T07:28:57.741Z,8.00
2019-02-05T07:31:16.077Z,6.30
2019-02-05T07:33:44.366Z,7.03
2019-02-05T07:36:12.533Z,7.40
2019-02-05T07:38:40.649Z,4.03
2019-02-05T07:41:08.964Z,7.17
2019-02-05T07:43:37.323Z,5.23
2019-02-05T07:46:05.834Z,5.77
2019-02-05T07:48:34.004Z,4.53
2019-02-05T07:51:02.397Z,7.53
2019-02-05T07:53:33.174Z,8.90
2019-02-05T07:56:00.346Z,7.60
2019-02-05T07:58:28.546Z,8.80
2019-02-05T08:01:02.583Z,8.57
2019-02-05T08:03:33.437Z,6.93
2019-02-05T08:06:01.649Z,6.77
2019-02-05T08:08:29.909Z,7.10
2019-02-05T08:10:57.950Z,6.70
2019-02-05T08:13:26.175Z,6.30
2019-02-05T08:15:54.385Z,6.37
2019-02-05T08:18:22.544Z,9.03
2019-02-05T08:20:50.920Z,7.33
2019-02-05T08:23:19.146Z,5.37
2019-02-05T08:25:47.413Z,7.03
2019-02-05T08:28:15.576Z,6.53
2019-02-05T08:30:45.462Z,6.20
2019-02-05T08:33:13.738Z,6.60
2019-02-05T08:35:41.985Z,6.77
2019-02-05T08:38:10.318Z,6.57
2019-02-05T08:40:38.626Z,4.93
2019-02-05T08:43:07.021Z,6.50
2019-02-05T08:45:36.264Z,7.50
2019-02-05T08:48:05.627Z,8.20
2019-02-05T08:50:33.907Z,9.77
2019-02-05T08:53:02.178Z,7.20
2019-02-05T08:55:31.004Z,8.27
2019-02-05T08:58:00.926Z,7.40
2019-02-05T09:00:31.163Z,8.03
2019-02-05T09:02:59.634Z,8.07
2019-02-05T09:05:27.950Z,7.63
2019-02-05T09:07:56.129Z,7.80
2019-02-05T09:10:25.978Z,8.50
2019-02-05T09:12:54.116Z,10.13
2019-02-05T09:15:29.657Z,8.37
2019-02-05T09:17:53.327Z,7.70
2019-02-05T09:20:21.981Z,9.10
2019-02-05T09:22:50.254Z,7.97
2019-02-05T09:25:19.187Z,8.90
2019-02-05T09:27:47.468Z,7.87
2019-02-05T09:30:17.079Z,8.63
2019-02-05T09:32:45.414Z,8.17
2019-02-05T09:35:13.946Z,10.23
2019-02-05T09:37:42.166Z,8.40
2019-02-05T09:40:12.241Z,9.10
2019-02-05T09:42:40.454Z,9.57
2019-02-05T09:45:10.204Z,8.60
2019-02-05T09:47:38.745Z,9.50
2019-02-05T09:50:08.529Z,9.77
2019-02-05T09:52:36.664Z,11.80
2019-02-05T09:55:06.824Z,9.87
2019-02-05T09:57:35.103Z,9.60
2019-02-05T10:00:05.100Z,8.73
2019-02-05T10:02:34.461Z,8.27
2019-02-05T10:05:02.533Z,9.07
2019-02-05T10:07:31.224Z,8.33
2019-02-05T10:09:59.671Z,8.53
2019-02-05T10:12:27.939Z,9.87
2019-02-05T10:14:56.191Z,8.67
2019-02-05T10:17:24.373Z,10.10
2019-02-05T10:19:52.842Z,8.97
2019-02-05T10:22:21.078Z,11.07
2019-02-05T10:24:49.983Z,8.73
2019-02-05T10:27:18.539Z,9.57
2019-02-05T10:29:57.766Z,11.93
2019-02-05T10:32:16.500Z,10.30
2019-02-05T10:34:44.750Z,13.00
2019-02-05T10:37:12.938Z,13.10
2019-02-05T10:39:41.298Z,8.17
2019-02-05T10:42:09.427Z,9.37
2019-02-05T10:44:38.027Z,11.07
2019-02-05T10:47:06.302Z,8.70
2019-02-05T10:49:34.581Z,7.57
2019-02-05T10:52:02.815Z,11.13
2019-02-05T10:54:30.984Z,11.73
2019-02-05T10:56:59.343Z,8.20
2019-02-05T10:59:27.689Z,6.83
2019-02-05T11:01:56.221Z,11.40
2019-02-05T11:04:24.502Z,6.83
2019-02-05T11:06:52.837Z,10.63
2019-02-05T11:09:20.971Z,6.43
2019-02-05T11:11:49.275Z,11.43
2019-02-05T11:14:17.538Z,9.07
2019-02-05T11:16:45.786Z,10.90
2019-02-05T11:19:14.010Z,10.23
2019-02-05T11:21:42.211Z,6.40
2019-02-05T11:24:10.339Z,9.47
2019-02-05T11:26:38.785Z,7.83
2019-02-05T11:29:07.023Z,11.10
2019-02-05T11:31:35.320Z,9.00
2019-02-05T11:34:03.583Z,5.07
2019-02-05T11:36:31.752Z,9.70
2019-02-05T11:39:00.194Z,10.33
2019-02-05T11:41:28.415Z,8.97
2019-02-05T11:43:56.685Z,10.63
2019-02-05T11:46:24.869Z,8.93
2019-02-05T11:48:53.038Z,9.80
2019-02-05T11:51:21.347Z,10.27
2019-02-05T11:53:49.794Z,10.30
2019-02-05T11:56:18.493Z,10.83
2019-02-05T11:58:46.775Z,10.80
2019-02-05T12:01:15.587Z,9.73
2019-02-05T12:03:43.871Z,9.20
2019-02-05T12:06:12.103Z,10.27
2019-02-05T12:08:40.398Z,9.90
2019-02-05T12:11:08.678Z,7.90
2019-02-05T12:13:36.956Z,8.63
2019-02-05T12:16:05.588Z,9.87
2019-02-05T12:18:33.793Z,8.27
2019-02-05T12:21:01.988Z,10.10
2019-02-05T12:23:30.314Z,11.17
2019-02-05T12:25:58.588Z,9.00
2019-02-05T12:28:26.814Z,9.93
2019-02-05T12:30:54.958Z,9.67
2019-02-05T12:33:23.213Z,11.60
2019-02-05T12:35:51.493Z,10.60
2019-02-05T12:38:19.836Z,8.77
2019-02-05T12:40:48.109Z,10.60
2019-02-05T12:43:16.419Z,12.13
2019-02-05T12:45:44.734Z,12.77
2019-02-05T12:48:12.906Z,9.67
2019-02-05T12:50:41.806Z,8.47
2019-02-05T12:53:09.992Z,8.00
2019-02-05T12:55:38.572Z,9.60
2019-02-05T12:58:06.834Z,11.37
2019-02-05T13:00:36.684Z,9.27
2019-02-05T13:03:05.522Z,9.40
2019-02-05T13:05:33.808Z,10.90
2019-02-05T13:08:05.363Z,11.87
2019-02-05T13:10:33.901Z,9.70
2019-02-05T13:13:02.254Z,10.83
2019-02-05T13:15:30.586Z,8.23
2019-02-05T13:17:59.076Z,12.70
2019-02-05T13:20:28.194Z,8.43
2019-02-05T13:22:56.867Z,11.17
2019-02-05T13:25:26.118Z,10.23
2019-02-05T13:27:54.452Z,11.03
2019-02-05T13:30:23.626Z,13.10
2019-02-05T13:32:51.945Z,13.27
2019-02-05T13:35:20.234Z,9.27
2019-02-05T13:37:48.867Z,12.00
2019-02-05T13:40:18.360Z,20.13
2019-02-05T13:42:46.620Z,28.40
2019-02-05T13:45:15.745Z,12.37
2019-02-05T13:47:44.075Z,11.30
2019-02-05T13:50:13.948Z,14.47
2019-02-05T13:52:42.242Z,10.13
2019-02-05T13:55:12.211Z,12.43
2019-02-05T13:57:40.576Z,9.43
2019-02-05T14:00:10.379Z,13.30
2019-02-05T14:02:38.555Z,12.73
2019-02-05T14:05:08.701Z,9.10
2019-02-05T14:07:36.946Z,13.67
2019-02-05T14:10:07.358Z,12.70
2019-02-05T14:12:35.753Z,14.93
2019-02-05T14:15:05.619Z,12.13
2019-02-05T14:17:33.899Z,11.73
2019-02-05T14:20:02.114Z,12.23
2019-02-05T14:22:31.739Z,15.63
2019-02-05T14:25:00.658Z,11.23
2019-02-05T14:27:28.800Z,15.53
2019-02-05T14:29:57.136Z,12.57
2019-02-05T14:32:25.426Z,12.53
2019-02-05T14:34:53.522Z,12.17
2019-02-05T14:37:21.866Z,14.90
2019-02-05T14:39:51.089Z,17.37
2019-02-05T14:42:19.305Z,12.33
2019-02-05T14:44:47.678Z,14.30
2019-02-05T14:47:15.786Z,12.40
2019-02-05T14:49:44.038Z,14.53
2019-02-05T14:52:12.364Z,14.37
2019-02-05T14:54:40.536Z,13.13
2019-02-05T14:57:09.157Z,15.33
2019-02-05T14:59:37.401Z,15.13
2019-02-05T15:02:05.579Z,13.60
2019-02-05T15:04:33.946Z,15.83
2019-02-05T15:07:02.215Z,20.87
2019-02-05T15:09:30.514Z,18.97
2019-02-05T15:11:58.898Z,18.33
2019-02-05T15:14:27.234Z,10.50
2019-02-05T15:16:55.548Z,13.87
2019-02-05T15:19:23.954Z,17.27
2019-02-05T15:21:52.368Z,13.97
2019-02-05T15:24:20.761Z,15.80
2019-02-05T15:26:49.268Z,12.03
2019-02-05T15:29:18.079Z,14.67
2019-02-05T15:31:54.325Z,12.80
2019-02-05T15:34:18.119Z,14.93
2019-02-05T15:36:46.831Z,14.90
2019-02-05T15:39:15.461Z,15.13
2019-02-05T15:41:44.181Z,11.23
2019-02-05T15:44:12.946Z,13.03
2019-02-05T15:46:41.320Z,14.27
2019-02-05T15:49:09.637Z,18.60
2019-02-05T15:51:37.962Z,14.70
2019-02-05T15:54:06.636Z,14.77
2019-02-05T15:56:35.018Z,22.57
2019-02-05T15:59:03.635Z,19.00
2019-02-05T16:01:31.946Z,22.20
2019-02-05T16:04:00.357Z,17.90
2019-02-05T16:06:28.776Z,19.93
2019-02-05T16:08:57.155Z,20.70
2019-02-05T16:11:25.587Z,28.33
2019-02-05T16:13:53.867Z,27.87
2019-02-05T16:16:22.612Z,19.13
2019-02-05T16:18:53.306Z,14.70
2019-02-05T16:21:20.906Z,29.43
2019-02-05T16:23:49.363Z,21.17
2019-02-05T16:26:18.330Z,22.07
2019-02-05T16:28:46.663Z,15.03
2019-02-05T16:31:15.035Z,17.20
2019-02-05T16:33:43.810Z,15.90
2019-02-05T16:36:12.597Z,14.33
2019-02-05T16:38:41.175Z,14.50
2019-02-05T16:41:09.328Z,16.40
2019-02-05T16:43:37.633Z,15.40
2019-02-05T16:46:06.411Z,14.77
2019-02-05T16:48:34.947Z,17.67
2019-02-05T16:51:03.607Z,20.47
2019-02-05T16:53:31.926Z,18.97
2019-02-05T16:56:00.406Z,17.20
2019-02-05T16:58:28.741Z,23.17
2019-02-05T17:00:57.101Z,33.10
2019-02-05T17:03:25.877Z,23.50
2019-02-05T17:05:54.960Z,19.40
2019-02-05T17:08:24.496Z,21.83
2019-02-05T17:10:52.994Z,19.23
2019-02-05T17:13:21.256Z,16.03
2019-02-05T17:15:50.599Z,22.80
2019-02-05T17:18:23.585Z,21.83
2019-02-05T17:20:48.710Z,29.00
2019-02-05T17:23:16.919Z,21.23
2019-02-05T17:25:45.065Z,24.77
2019-02-05T17:28:13.375Z,31.03
2019-02-05T17:30:41.673Z,33.47
2019-02-05T17:33:13.309Z,27.53
2019-02-05T17:35:43.086Z,25.00
2019-02-05T17:38:11.614Z,20.77
2019-02-05T17:40:40.088Z,22.30
2019-02-05T17:43:08.371Z,15.17
2019-02-05T17:45:37.958Z,19.23
2019-02-05T17:48:07.768Z,25.27
2019-02-05T17:50:37.339Z,18.30
2019-02-05T17:53:06.814Z,23.67
2019-02-05T17:55:35.376Z,23.57
2019-02-05T17:58:04.003Z,29.20
2019-02-05T18:00:34.626Z,24.23
2019-02-05T18:03:02.983Z,26.97
2019-02-05T18:05:31.337Z,20.07
2019-02-05T18:08:01.418Z,18.57
2019-02-05T18:10:29.854Z,24.53
2019-02-05T18:12:58.283Z,26.83
2019-02-05T18:15:29.319Z,21.30
2019-02-05T18:17:57.774Z,28.83
2019-02-05T18:20:27.224Z,22.03
2019-02-05T18:22:56.014Z,26.10
2019-02-05T18:25:24.299Z,22.33
2019-02-05T18:27:52.637Z,27.23
2019-02-05T18:30:22.527Z,29.07
2019-02-05T18:32:50.946Z,25.57
2019-02-05T18:35:19.392Z,28.60
2019-02-05T18:37:48.340Z,22.53
2019-02-05T18:40:21.403Z,23.40
2019-02-05T18:42:49.998Z,25.93
2019-02-05T18:45:19.074Z,22.03
2019-02-05T18:47:47.530Z,25.07
2019-02-05T18:53:00.930Z,19.33
2019-02-05T18:55:30.904Z,15.40
2019-02-05T18:58:08.954Z,28.37
2019-02-05T19:00:30.446Z,27.93
2019-02-05T19:02:58.850Z,21.97
2019-02-05T19:05:27.759Z,23.47
2019-02-05T19:07:56.167Z,28.40
2019-02-05T19:10:25.894Z,23.00
2019-02-05T19:12:54.288Z,24.20
2019-02-05T19:15:24.196Z,21.03
2019-02-05T19:17:52.718Z,25.83
2019-02-05T19:20:22.460Z,31.17
2019-02-05T19:22:50.929Z,22.63
2019-02-05T19:25:21.090Z,26.57
2019-02-05T19:27:49.673Z,17.63
2019-02-05T19:30:20.914Z,21.17
2019-02-05T19:32:50.546Z,23.33
2019-02-05T19:35:19.122Z,20.10
2019-02-05T19:37:47.594Z,19.37
2019-02-05T19:40:16.232Z,27.70
2019-02-05T19:42:44.617Z,31.33
2019-02-05T19:45:15.594Z,29.23
2019-02-05T19:47:44.113Z,26.37
2019-02-05T19:50:12.754Z,20.80
2019-02-05T19:52:41.746Z,19.23
2019-02-05T19:55:12.028Z,21.40
2019-02-05T19:57:40.984Z,31.90
2019-02-05T20:00:11.333Z,22.57
2019-02-05T20:02:39.794Z,28.83
2019-02-05T20:05:09.439Z,30.67
2019-02-05T20:07:37.996Z,28.57
2019-02-05T20:10:08.166Z,27.73
2019-02-05T20:12:36.624Z,25.10
2019-02-05T20:15:06.426Z,24.73
2019-02-05T20:17:34.876Z,26.73
2019-02-05T20:20:04.613Z,27.47
2019-02-05T20:22:32.974Z,29.93
2019-02-05T20:25:01.260Z,20.77
2019-02-05T20:27:31.455Z,33.97
2019-02-05T20:29:59.819Z,20.37
2019-02-05T20:32:28.325Z,30.57
2019-02-05T20:34:56.643Z,33.40
2019-02-05T20:37:24.973Z,18.03
2019-02-05T20:39:53.766Z,28.37
2019-02-05T20:42:22.138Z,26.93
2019-02-05T20:44:50.934Z,17.83
2019-02-05T20:47:23.403Z,22.33
2019-02-05T20:49:52.714Z,27.13
2019-02-05T20:52:21.190Z,30.93
2019-02-05T20:57:53.641Z,24.97
2019-02-05T21:00:23.836Z,27.17
2019-02-05T21:02:52.364Z,34.10
2019-02-05T21:05:21.028Z,28.83
2019-02-05T21:07:49.723Z,29.53
2019-02-05T21:10:19.982Z,21.27
2019-02-05T21:12:48.516Z,31.20
2019-02-05T21:15:18.129Z,28.67
2019-02-05T21:17:47.949Z,31.60
2019-02-05T21:20:28.471Z,29.23
2019-02-05T21:22:48.037Z,27.30
2019-02-05T21:25:18.078Z,29.80
2019-02-05T21:27:46.586Z,31.63
2019-02-05T21:30:16.278Z,34.10
2019-02-05T21:32:45.049Z,28.87
2019-02-05T21:35:14.839Z,25.87
2019-02-05T21:37:43.217Z,27.80
2019-02-05T21:40:13.068Z,31.47
2019-02-05T21:42:41.379Z,28.40
2019-02-05T21:45:11.134Z,32.37
2019-02-05T21:47:39.552Z,38.53
2019-02-05T21:50:09.286Z,25.33
2019-02-05T21:52:37.616Z,27.47
2019-02-05T21:55:07.228Z,29.23
2019-02-05T21:57:35.822Z,34.07
2019-02-05T22:00:05.586Z,30.77
2019-02-05T22:02:36.187Z,32.43
2019-02-05T22:05:06.510Z,19.70
2019-02-05T22:10:50.133Z,31.87
2019-02-05T22:16:23.535Z,19.10
2019-02-05T22:18:51.812Z,33.50
2019-02-05T22:21:20.634Z,14.43
2019-02-05T22:23:49.183Z,17.70
2019-02-05T22:26:17.685Z,30.17
2019-02-05T22:28:46.169Z,30.00
2019-02-05T22:31:14.631Z,28.13
2019-02-05T22:33:43.115Z,27.60
2019-02-05T22:39:28.679Z,27.13
2019-02-05T22:45:14.154Z,21.03
2019-02-05T22:47:52.425Z,21.97
2019-02-05T22:53:39.881Z,23.90
2019-02-05T22:56:08.257Z,28.27
2019-02-05T23:01:52.316Z,25.77
2019-02-05T23:04:22.119Z,22.33
2019-02-05T23:10:07.329Z,31.87
2019-02-05T23:15:52.198Z,30.20
2019-02-05T23:21:36.614Z,26.87
2019-02-05T23:27:19.981Z,29.00
2019-02-05T23:29:48.222Z,23.27
2019-02-05T23:35:32.713Z,20.27
2019-02-05T23:38:01.591Z,32.40
2019-02-05T23:40:29.855Z,28.77
2019-02-05T23:46:02.706Z,25.97
2019-02-05T23:48:31.378Z,26.27
2019-02-05T23:54:15.019Z,27.17
2019-02-05T23:59:58.372Z,22.23
